createdAt,value
2019-06-09T00:01:51.813Z,99.90
2019-06-09T00:04:23.334Z,99.90
2019-06-09T00:06:57.072Z,99.90
2019-06-09T00:09:28.672Z,99.90
2019-06-09T00:12:00.863Z,99.90
2019-06-09T00:14:32.500Z,99.90
2019-06-09T00:17:04.261Z,99.90
2019-06-09T00:19:37.354Z,99.90
2019-06-09T00:22:09.939Z,99.90
2019-06-09T00:24:42.952Z,99.90
2019-06-09T00:27:14.318Z,99.90
2019-06-09T00:29:48.348Z,99.90
2019-06-09T00:32:22.340Z,99.90
2019-06-09T00:34:53.803Z,99.90
2019-06-09T00:37:27.269Z,99.90
2019-06-09T00:39:59.281Z,99.90
2019-06-09T00:42:31.490Z,99.90
2019-06-09T00:45:04.159Z,99.90
2019-06-09T00:47:37.478Z,99.90
2019-06-09T00:50:13.648Z,99.90
2019-06-09T00:52:48.889Z,99.90
2019-06-09T00:55:23.599Z,99.90
2019-06-09T00:57:53.641Z,99.90
2019-06-09T01:00:27.467Z,99.90
2019-06-09T01:02:58.403Z,99.90
2019-06-09T01:05:29.941Z,99.90
2019-06-09T01:08:01.317Z,99.90
2019-06-09T01:10:32.864Z,99.90
2019-06-09T01:13:04.246Z,99.90
2019-06-09T01:15:37.710Z,99.90
2019-06-09T01:18:11.201Z,99.90
2019-06-09T01:20:42.849Z,99.90
2019-06-09T01:23:14.331Z,99.90
2019-06-09T01:25:47.352Z,99.90
2019-06-09T01:28:20.321Z,99.90
2019-06-09T01:30:53.217Z,99.90
2019-06-09T01:33:24.587Z,99.90
2019-06-09T01:35:57.536Z,99.90
2019-06-09T01:38:29.189Z,99.90
2019-06-09T01:41:00.732Z,99.90
2019-06-09T01:43:32.146Z,99.90
2019-06-09T01:46:03.731Z,99.90
2019-06-09T01:48:35.207Z,99.90
2019-06-09T01:51:08.091Z,99.90
2019-06-09T01:53:39.641Z,99.90
2019-06-09T01:56:12.267Z,99.90
2019-06-09T01:58:44.905Z,99.90
2019-06-09T02:01:20.023Z,99.90
2019-06-09T02:03:49.394Z,99.90
2019-06-09T02:06:22.030Z,99.90
2019-06-09T02:08:53.991Z,99.90
2019-06-09T02:11:27.315Z,99.90
2019-06-09T02:13:58.425Z,99.90
2019-06-09T02:16:29.868Z,99.90
2019-06-09T02:19:01.229Z,99.90
2019-06-09T02:21:32.999Z,99.90
2019-06-09T02:24:08.242Z,99.90
2019-06-09T02:26:39.524Z,99.90
2019-06-09T02:29:10.992Z,99.90
2019-06-09T02:31:43.023Z,99.90
2019-06-09T02:34:17.331Z,99.90
2019-06-09T02:36:54.075Z,99.90
2019-06-09T02:39:30.499Z,99.90
2019-06-09T02:41:56.548Z,99.90
2019-06-09T02:44:35.489Z,99.90
2019-06-09T02:47:13.187Z,99.90
2019-06-09T02:49:45.609Z,99.90
2019-06-09T02:52:18.866Z,99.90
2019-06-09T02:54:52.724Z,99.90
2019-06-09T02:57:30.090Z,99.90
2019-06-09T02:59:56.907Z,99.90
2019-06-09T03:02:33.107Z,99.90
2019-06-09T03:05:02.989Z,99.90
2019-06-09T03:07:40.483Z,99.90
2019-06-09T03:10:08.436Z,99.90
2019-06-09T03:12:44.125Z,99.90
2019-06-09T03:15:14.248Z,99.90
2019-06-09T03:17:46.696Z,99.90
2019-06-09T03:20:18.906Z,99.90
2019-06-09T03:22:52.363Z,99.90
2019-06-09T03:25:27.544Z,99.90
2019-06-09T03:27:56.713Z,99.90
2019-06-09T03:30:42.134Z,99.90
2019-06-09T03:36:27.264Z,99.90
2019-06-09T03:38:19.410Z,99.90
2019-06-09T03:40:46.041Z,99.90
2019-06-09T03:43:14.980Z,99.90
2019-06-09T03:45:46.351Z,99.90
2019-06-09T03:48:17.874Z,99.90
2019-06-09T03:50:55.891Z,99.90
2019-06-09T03:53:28.859Z,99.90
2019-06-09T03:55:57.470Z,99.90
2019-06-09T03:58:38.141Z,99.90
2019-06-09T04:01:02.860Z,99.90
2019-06-09T04:03:41.212Z,99.90
2019-06-09T04:06:23.411Z,99.90
2019-06-09T04:08:45.942Z,99.90
2019-06-09T04:11:15.582Z,99.90
2019-06-09T04:13:48.027Z,99.90
2019-06-09T04:16:22.793Z,99.90
2019-06-09T04:18:53.280Z,99.90
2019-06-09T04:21:28.837Z,99.90
2019-06-09T04:24:01.866Z,99.90
2019-06-09T04:26:38.227Z,99.90
2019-06-09T04:29:07.697Z,99.90
2019-06-09T04:31:44.419Z,99.90
2019-06-09T04:34:13.374Z,99.90
2019-06-09T04:36:56.383Z,99.90
2019-06-09T04:39:18.443Z,99.90
2019-06-09T04:41:52.106Z,99.90
2019-06-09T04:44:25.205Z,99.90
2019-06-09T04:46:56.097Z,99.90
2019-06-09T04:49:30.000Z,99.90
2019-06-09T04:52:01.965Z,99.90
2019-06-09T04:54:37.958Z,99.90
2019-06-09T04:57:07.016Z,99.90
2019-06-09T04:59:43.194Z,99.90
2019-06-09T05:02:12.275Z,99.90
2019-06-09T05:04:48.874Z,99.90
2019-06-09T05:07:27.391Z,99.90
2019-06-09T05:09:52.928Z,99.90
2019-06-09T05:12:24.158Z,99.90
2019-06-09T05:14:55.942Z,99.90
2019-06-09T05:17:28.623Z,99.90
2019-06-09T05:20:01.985Z,99.90
2019-06-09T05:22:37.889Z,99.90
2019-06-09T05:25:07.571Z,99.90
2019-06-09T05:27:45.172Z,99.90
2019-06-09T05:30:13.560Z,99.90
2019-06-09T05:32:46.859Z,99.90
2019-06-09T05:35:21.548Z,99.90
2019-06-09T05:37:53.205Z,99.90
2019-06-09T05:40:24.616Z,99.90
2019-06-09T05:42:57.133Z,99.90
2019-06-09T05:45:28.538Z,99.90
2019-06-09T05:48:01.256Z,99.90
2019-06-09T05:50:34.560Z,99.90
2019-06-09T05:53:06.087Z,99.90
2019-06-09T05:55:38.289Z,99.90
2019-06-09T05:58:11.361Z,97.00
2019-06-09T06:00:45.399Z,97.90
2019-06-09T06:03:16.211Z,98.20
2019-06-09T06:05:47.837Z,96.60
2019-06-09T06:10:51.161Z,95.10
2019-06-09T06:13:22.644Z,94.10
2019-06-09T06:15:53.827Z,92.60
2019-06-09T06:18:25.139Z,92.90
2019-06-09T06:20:56.621Z,93.10
2019-06-09T06:23:27.937Z,93.50
2019-06-09T06:26:03.911Z,93.80
2019-06-09T06:28:33.508Z,92.30
2019-06-09T06:31:04.940Z,91.30
2019-06-09T06:33:36.408Z,91.00
2019-06-09T06:36:07.639Z,90.00
2019-06-09T06:38:41.754Z,87.60
2019-06-09T06:41:22.717Z,84.00
2019-06-09T06:43:53.952Z,90.20
2019-06-09T06:46:25.232Z,82.10
2019-06-09T06:48:56.919Z,83.90
2019-06-09T06:51:28.145Z,82.00
2019-06-09T06:54:01.016Z,83.50
2019-06-09T06:56:32.138Z,84.30
2019-06-09T06:59:03.719Z,84.60
2019-06-09T07:01:34.971Z,83.70
2019-06-09T07:04:06.354Z,85.80
2019-06-09T07:06:37.500Z,83.20
2019-06-09T07:09:10.931Z,82.00
2019-06-09T07:11:43.068Z,84.60
2019-06-09T07:14:15.471Z,84.40
2019-06-09T07:16:46.864Z,83.60
2019-06-09T07:19:20.620Z,86.20
2019-06-09T07:21:51.957Z,83.50
2019-06-09T07:24:24.829Z,83.20
2019-06-09T07:27:04.145Z,83.60
2019-06-09T07:29:36.627Z,82.10
2019-06-09T07:32:07.928Z,84.00
2019-06-09T07:34:42.304Z,82.90
2019-06-09T07:37:12.268Z,83.20
2019-06-09T07:39:45.504Z,88.80
2019-06-09T07:42:20.991Z,84.50
2019-06-09T07:44:55.851Z,83.10
2019-06-09T07:47:25.340Z,82.70
2019-06-09T07:49:57.049Z,80.30
2019-06-09T07:52:28.230Z,79.50
2019-06-09T07:55:01.295Z,79.70
2019-06-09T07:57:32.323Z,81.00
2019-06-09T08:00:03.848Z,80.80
2019-06-09T08:02:35.588Z,82.60
2019-06-09T08:05:06.870Z,73.20
2019-06-09T08:07:38.311Z,70.60
2019-06-09T08:10:10.886Z,73.00
2019-06-09T08:12:43.822Z,68.50
2019-06-09T08:15:15.421Z,64.10
2019-06-09T08:17:47.569Z,65.90
2019-06-09T08:20:21.655Z,65.80
2019-06-09T08:22:55.550Z,65.30
2019-06-09T08:25:25.469Z,68.00
2019-06-09T08:27:56.746Z,67.30
2019-06-09T08:30:40.845Z,66.00
2019-06-09T08:33:24.768Z,62.50
2019-06-09T08:35:58.169Z,67.80
2019-06-09T08:38:49.005Z,63.90
2019-06-09T08:41:11.476Z,59.70
2019-06-09T08:43:43.517Z,60.40
2019-06-09T08:46:15.119Z,61.50
2019-06-09T08:48:47.824Z,61.00
2019-06-09T08:51:21.328Z,61.40
2019-06-09T08:53:54.165Z,59.50
2019-06-09T08:56:27.118Z,57.70
2019-06-09T08:58:58.484Z,59.70
2019-06-09T09:01:31.685Z,60.60
2019-06-09T09:04:03.729Z,58.00
2019-06-09T09:06:35.153Z,61.20
2019-06-09T09:09:18.969Z,60.30
2019-06-09T09:11:41.665Z,64.70
2019-06-09T09:14:13.749Z,60.70
2019-06-09T09:16:45.000Z,60.90
2019-06-09T09:19:16.691Z,58.60
2019-06-09T09:21:48.837Z,61.80
2019-06-09T09:24:51.489Z,60.70
2019-06-09T09:26:57.187Z,61.30
2019-06-09T09:29:26.447Z,62.00
2019-06-09T09:31:58.764Z,59.40
2019-06-09T09:34:32.006Z,60.70
2019-06-09T09:37:03.497Z,60.60
2019-06-09T09:39:35.950Z,60.60
2019-06-09T09:42:08.481Z,60.10
2019-06-09T09:44:41.568Z,61.00
2019-06-09T09:47:13.297Z,59.70
2019-06-09T09:49:45.783Z,61.00
2019-06-09T09:52:17.680Z,61.00
2019-06-09T09:54:52.748Z,60.60
2019-06-09T09:57:22.516Z,62.00
2019-06-09T09:59:56.213Z,63.70
2019-06-09T10:02:26.569Z,63.20
2019-06-09T10:04:58.185Z,63.20
2019-06-09T10:07:31.617Z,63.40
2019-06-09T10:10:04.903Z,64.30
2019-06-09T10:12:36.793Z,65.60
2019-06-09T10:15:08.744Z,66.60
2019-06-09T10:17:41.925Z,67.70
2019-06-09T10:20:13.796Z,65.00
2019-06-09T10:22:45.025Z,67.80
2019-06-09T10:25:19.627Z,67.80
2019-06-09T10:27:52.453Z,67.60
2019-06-09T10:30:23.578Z,68.40
2019-06-09T10:32:57.268Z,68.30
2019-06-09T10:35:27.725Z,67.10
2019-06-09T10:38:00.293Z,68.70
2019-06-09T10:40:32.057Z,70.80
2019-06-09T10:43:04.425Z,66.90
2019-06-09T10:45:36.358Z,68.20
2019-06-09T10:48:07.586Z,66.90
2019-06-09T10:50:41.245Z,68.20
2019-06-09T10:53:11.911Z,71.80
2019-06-09T10:55:43.133Z,69.90
2019-06-09T10:58:26.807Z,64.30
2019-06-09T11:00:59.389Z,65.80
2019-06-09T11:03:30.985Z,65.80
2019-06-09T11:06:04.457Z,64.10
2019-06-09T11:08:35.568Z,65.40
2019-06-09T11:11:06.901Z,65.70
2019-06-09T11:13:38.339Z,65.60
2019-06-09T11:16:11.794Z,63.70
2019-06-09T11:18:43.319Z,62.80
2019-06-09T11:21:14.363Z,66.20
2019-06-09T11:23:45.725Z,64.40
2019-06-09T11:26:16.986Z,65.20
2019-06-09T11:28:48.312Z,62.60
2019-06-09T11:31:20.679Z,62.50
2019-06-09T11:33:53.624Z,64.70
2019-06-09T11:36:27.608Z,65.60
2019-06-09T11:39:01.796Z,63.20
2019-06-09T11:41:34.236Z,63.40
2019-06-09T11:44:05.624Z,64.00
2019-06-09T11:46:38.702Z,66.70
2019-06-09T11:49:12.823Z,65.10
2019-06-09T11:51:43.197Z,63.80
2019-06-09T11:54:14.687Z,62.20
2019-06-09T11:56:45.957Z,64.10
2019-06-09T11:59:17.119Z,62.70
2019-06-09T12:01:51.302Z,64.60
2019-06-09T12:04:22.058Z,62.10
2019-06-09T12:06:53.603Z,61.00
2019-06-09T12:09:25.218Z,61.40
2019-06-09T12:11:57.687Z,61.00
2019-06-09T12:14:29.151Z,60.00
2019-06-09T12:17:03.076Z,62.00
2019-06-09T12:19:33.539Z,59.60
2019-06-09T12:22:05.859Z,60.70
2019-06-09T12:24:41.162Z,58.20
2019-06-09T12:27:11.948Z,59.70
2019-06-09T12:29:45.359Z,60.70
2019-06-09T12:32:16.575Z,59.10
2019-06-09T12:34:47.772Z,57.60
2019-06-09T12:37:21.562Z,59.40
2019-06-09T12:39:52.580Z,61.80
2019-06-09T12:42:24.155Z,59.20
2019-06-09T12:44:56.475Z,60.10
2019-06-09T12:47:27.800Z,60.70
2019-06-09T12:50:01.675Z,60.20
2019-06-09T12:52:32.028Z,61.90
2019-06-09T12:55:05.641Z,62.60
2019-06-09T12:57:36.807Z,64.90
2019-06-09T13:00:17.512Z,65.60
2019-06-09T13:02:42.571Z,66.70
2019-06-09T13:05:14.548Z,67.80
2019-06-09T13:07:47.711Z,67.20
2019-06-09T13:10:21.568Z,66.40
2019-06-09T13:12:53.186Z,67.80
2019-06-09T13:15:24.595Z,67.70
2019-06-09T13:17:56.078Z,69.50
2019-06-09T13:20:27.684Z,69.90
2019-06-09T13:23:02.552Z,71.20
2019-06-09T13:25:34.601Z,71.90
2019-06-09T13:28:06.455Z,71.70
2019-06-09T13:30:40.975Z,71.50
2019-06-09T13:33:13.915Z,73.60
2019-06-09T13:35:45.647Z,73.60
2019-06-09T13:38:17.125Z,73.10
2019-06-09T13:40:48.576Z,75.10
2019-06-09T13:43:21.900Z,75.80
2019-06-09T13:45:53.141Z,76.80
2019-06-09T13:48:24.510Z,78.50
2019-06-09T13:50:56.525Z,78.70
2019-06-09T13:53:27.944Z,78.60
2019-06-09T13:56:01.369Z,77.80
2019-06-09T13:58:32.395Z,78.20
2019-06-09T14:01:06.326Z,77.50
2019-06-09T14:03:40.638Z,77.20
2019-06-09T14:06:14.493Z,76.80
2019-06-09T14:08:46.396Z,75.20
2019-06-09T14:11:18.231Z,75.70
2019-06-09T14:13:51.127Z,75.30
2019-06-09T14:16:32.350Z,74.60
2019-06-09T14:19:03.851Z,74.00
2019-06-09T14:21:35.348Z,74.70
2019-06-09T14:24:07.858Z,75.70
2019-06-09T14:26:41.476Z,76.30
2019-06-09T14:29:14.828Z,76.50
2019-06-09T14:31:59.934Z,75.70
2019-06-09T14:34:21.963Z,75.70
2019-06-09T14:36:52.132Z,76.60
2019-06-09T14:39:23.548Z,76.60
2019-06-09T14:41:55.079Z,76.10
2019-06-09T14:44:26.600Z,76.00
2019-06-09T14:47:05.687Z,74.40
2019-06-09T14:49:37.597Z,74.10
2019-06-09T14:52:09.834Z,75.00
2019-06-09T14:54:42.077Z,75.10
2019-06-09T14:57:14.929Z,74.50
2019-06-09T14:59:47.197Z,74.30
2019-06-09T15:02:21.050Z,73.60
2019-06-09T15:04:51.718Z,73.50
2019-06-09T15:07:23.230Z,74.90
2019-06-09T15:09:54.730Z,75.80
2019-06-09T15:12:38.129Z,76.70
2019-06-09T15:15:01.019Z,76.70
2019-06-09T15:17:32.875Z,76.80
2019-06-09T15:20:04.561Z,77.40
2019-06-09T15:22:36.047Z,78.00
2019-06-09T15:25:12.448Z,76.80
2019-06-09T15:27:41.975Z,78.00
2019-06-09T15:30:17.487Z,78.20
2019-06-09T15:32:46.911Z,77.60
2019-06-09T15:35:22.278Z,77.30
2019-06-09T15:38:01.220Z,78.40
2019-06-09T15:40:24.917Z,78.80
2019-06-09T15:42:56.481Z,79.70
2019-06-09T15:45:27.965Z,80.20
2019-06-09T15:48:00.903Z,80.80
2019-06-09T15:50:32.516Z,80.80
2019-06-09T15:53:04.421Z,80.30
2019-06-09T15:55:36.481Z,82.00
2019-06-09T15:58:07.958Z,83.30
2019-06-09T16:00:41.818Z,82.60
2019-06-09T16:03:13.948Z,81.40
2019-06-09T16:05:50.573Z,80.60
2019-06-09T16:08:23.925Z,81.70
2019-06-09T16:15:58.207Z,81.90
2019-06-09T16:18:31.062Z,80.90
2019-06-09T16:21:02.859Z,82.50
2019-06-09T16:28:36.124Z,82.20
2019-06-09T16:58:51.537Z,84.70
2019-06-09T17:01:27.102Z,97.20
2019-06-09T17:03:58.663Z,98.40
2019-06-09T17:06:32.764Z,98.20
2019-06-09T17:09:06.262Z,99.70
2019-06-09T17:11:41.231Z,99.60
2019-06-09T17:14:12.167Z,99.30
2019-06-09T17:16:44.291Z,99.50
2019-06-09T17:19:15.856Z,99.90
2019-06-09T17:21:51.182Z,99.90
2019-06-09T17:24:27.371Z,99.90
2019-06-09T17:27:01.904Z,99.90
2019-06-09T17:29:38.699Z,99.90
2019-06-09T17:32:11.934Z,99.90
2019-06-09T17:34:43.707Z,99.90
2019-06-09T17:37:15.223Z,99.90
2019-06-09T17:39:48.695Z,99.90
2019-06-09T17:42:22.099Z,99.90
2019-06-09T17:44:53.243Z,99.90
2019-06-09T17:47:24.898Z,99.90
2019-06-09T17:55:12.653Z,99.90
2019-06-09T18:00:18.250Z,99.90
2019-06-09T18:02:59.337Z,99.90
2019-06-09T18:05:22.947Z,99.90
2019-06-09T18:07:54.425Z,99.90
2019-06-09T18:10:25.971Z,99.90
2019-06-09T18:12:57.480Z,99.90
2019-06-09T18:15:32.914Z,99.90
2019-06-09T18:18:03.919Z,99.90
2019-06-09T18:20:36.299Z,99.90
2019-06-09T18:23:08.630Z,99.90
2019-06-09T18:25:41.980Z,99.90
2019-06-09T18:28:13.748Z,99.90
2019-06-09T18:30:53.999Z,99.90
2019-06-09T18:33:18.201Z,99.90
2019-06-09T18:35:51.732Z,99.90
2019-06-09T18:38:22.998Z,99.90
2019-06-09T18:40:56.070Z,99.90
2019-06-09T18:43:28.286Z,99.90
2019-06-09T18:46:01.608Z,99.90
2019-06-09T18:48:36.584Z,99.90
2019-06-09T18:51:06.578Z,99.90
2019-06-09T18:53:38.240Z,99.90
2019-06-09T18:56:09.850Z,99.90
2019-06-09T18:58:43.265Z,99.90
2019-06-09T19:01:14.552Z,99.90
2019-06-09T20:31:57.910Z,99.90
2019-06-09T20:34:31.043Z,99.90
2019-06-09T20:37:02.966Z,99.90
2019-06-09T20:39:38.435Z,99.90
2019-06-09T20:42:08.167Z,99.90
2019-06-09T20:44:42.796Z,99.90
2019-06-09T20:47:12.870Z,99.90
2019-06-09T20:49:47.064Z,99.90
2019-06-09T20:52:17.642Z,99.90
2019-06-09T20:54:51.790Z,99.90
2019-06-09T20:57:22.196Z,99.90
2019-06-09T20:59:55.170Z,99.90
2019-06-09T21:02:26.828Z,99.90
2019-06-09T21:05:01.147Z,99.90
2019-06-09T21:07:33.922Z,99.90
2019-06-09T21:10:06.145Z,99.90
2019-06-09T21:12:40.718Z,99.90
2019-06-09T21:15:12.337Z,99.90
2019-06-09T21:17:50.543Z,99.90
2019-06-09T21:20:17.630Z,99.90
2019-06-09T21:22:50.097Z,99.90
2019-06-09T21:25:21.764Z,99.90
2019-06-09T21:27:54.572Z,99.90
2019-06-09T21:30:35.125Z,99.90
2019-06-09T21:33:06.510Z,99.90
2019-06-09T21:35:37.966Z,99.90
2019-06-09T21:38:10.939Z,99.90
2019-06-09T21:40:43.301Z,99.90
2019-06-09T21:43:15.503Z,99.90
2019-06-09T21:45:48.032Z,99.90
2019-06-09T21:48:19.637Z,99.90
2019-06-09T21:50:53.547Z,99.90
2019-06-09T21:53:24.193Z,99.90
2019-06-09T21:55:56.997Z,99.90
2019-06-09T21:58:28.396Z,99.90
2019-06-09T22:01:01.050Z,99.90
2019-06-09T22:03:32.725Z,99.90
2019-06-09T22:06:04.341Z,99.90
2019-06-09T22:08:36.155Z,99.90
2019-06-09T22:11:07.802Z,99.90
2019-06-09T22:13:40.850Z,99.90
2019-06-09T22:16:12.313Z,99.90
2019-06-09T22:18:43.687Z,99.90
2019-06-09T22:21:15.229Z,99.90
2019-06-09T22:23:51.769Z,99.90
2019-06-09T22:26:25.428Z,99.90
2019-06-09T22:28:56.348Z,99.90
2019-06-09T22:31:28.656Z,99.90
2019-06-09T22:34:01.676Z,99.90
2019-06-09T22:36:33.299Z,99.90
2019-06-09T22:39:07.104Z,99.90
2019-06-09T22:41:38.627Z,99.90
2019-06-09T22:44:11.884Z,99.90
2019-06-09T22:46:43.199Z,99.90
2019-06-09T22:49:14.615Z,99.90
2019-06-09T22:51:46.249Z,99.90
2019-06-09T22:54:17.712Z,99.90
2019-06-09T22:56:51.949Z,99.90
2019-06-09T22:59:24.344Z,99.90
2019-06-09T23:01:58.315Z,99.90
2019-06-09T23:04:30.357Z,99.90
2019-06-09T23:07:03.425Z,99.90
2019-06-09T23:09:35.109Z,99.90
2019-06-09T23:12:08.186Z,99.90
2019-06-09T23:14:41.441Z,99.90
2019-06-09T23:17:21.620Z,99.90
2019-06-09T23:19:45.962Z,99.90
2019-06-09T23:22:17.672Z,99.90
2019-06-09T23:24:51.142Z,99.90
2019-06-09T23:27:22.422Z,99.90
2019-06-09T23:29:53.992Z,99.90
2019-06-09T23:32:25.632Z,99.90
2019-06-09T23:34:57.153Z,99.90
2019-06-09T23:37:28.727Z,99.90
2019-06-09T23:40:02.416Z,99.90
2019-06-09T23:42:33.776Z,99.90
2019-06-09T23:45:06.838Z,99.90
2019-06-09T23:47:44.483Z,99.90
2019-06-09T23:50:12.886Z,99.90
2019-06-09T23:52:44.343Z,99.90
2019-06-09T23:55:15.722Z,99.90
2019-06-09T23:57:47.208Z,99.90
